sensor_id;sensor_type;location;lat;lon;timestamp;pressure;altitude;pressure_sealevel;temperature;humidity
31761;BME280;18335;51.486;7.562;2024-01-30T00:00:58;101360.84;;;16.53;91.02
31761;BME280;18335;51.486;7.562;2024-01-30T00:03:25;101350.75;;;16.85;89.43
31761;BME280;18335;51.486;7.562;2024-01-30T00:05:53;101348.03;;;17.38;83.74
31761;BME280;18335;51.486;7.562;2024-01-30T00:08:19;101350.25;;;17.12;86.68
31761;BME280;18335;51.486;7.562;2024-01-30T00:10:46;101354.88;;;16.89;87.61
31761;BME280;18335;51.486;7.562;2024-01-30T00:13:13;101356.22;;;16.54;92.38
31761;BME280;18335;51.486;7.562;2024-01-30T00:15:42;101352.25;;;16.48;92.73
31761;BME280;18335;51.486;7.562;2024-01-30T00:18:08;101356.03;;;16.47;91.93
31761;BME280;18335;51.486;7.562;2024-01-30T00:20:35;101360.47;;;16.65;92.00
31761;BME280;18335;51.486;7.562;2024-01-30T00:23:03;101346.97;;;16.86;88.71
31761;BME280;18335;51.486;7.562;2024-01-30T00:25:30;101357.09;;;16.93;86.61
31761;BME280;18335;51.486;7.562;2024-01-30T00:27:58;101353.03;;;16.73;88.99
31761;BME280;18335;51.486;7.562;2024-01-30T00:30:25;101347.97;;;16.38;91.53
31761;BME280;18335;51.486;7.562;2024-01-30T00:32:52;101344.13;;;17.02;88.85
31761;BME280;18335;51.486;7.562;2024-01-30T00:35:18;101344.25;;;17.08;86.62
31761;BME280;18335;51.486;7.562;2024-01-30T00:37:47;101346.16;;;17.08;86.82
31761;BME280;18335;51.486;7.562;2024-01-30T00:40:15;101336.63;;;17.41;84.49
31761;BME280;18335;51.486;7.562;2024-01-30T00:42:43;101345.75;;;17.19;83.99
31761;BME280;18335;51.486;7.562;2024-01-30T00:45:12;101344.00;;;16.95;85.09
31761;BME280;18335;51.486;7.562;2024-01-30T00:47:39;101341.75;;;17.22;84.45
31761;BME280;18335;51.486;7.562;2024-01-30T00:50:06;101341.75;;;16.91;86.64
31761;BME280;18335;51.486;7.562;2024-01-30T00:52:33;101329.94;;;17.13;85.92
31761;BME280;18335;51.486;7.562;2024-01-30T00:55:00;101330.78;;;16.83;87.41
31761;BME280;18335;51.486;7.562;2024-01-30T00:57:28;101331.88;;;17.04;85.96
31761;BME280;18335;51.486;7.562;2024-01-30T00:59:54;101332.47;;;17.23;84.29
31761;BME280;18335;51.486;7.562;2024-01-30T01:02:21;101330.63;;;16.84;86.16
31761;BME280;18335;51.486;7.562;2024-01-30T01:04:48;101337.41;;;16.66;89.27
31761;BME280;18335;51.486;7.562;2024-01-30T01:07:14;101338.75;;;16.70;89.80
31761;BME280;18335;51.486;7.562;2024-01-30T01:09:41;101339.69;;;16.54;89.98
31761;BME280;18335;51.486;7.562;2024-01-30T01:12:08;101325.22;;;16.91;87.17
31761;BME280;18335;51.486;7.562;2024-01-30T01:14:36;101334.13;;;17.01;84.92
31761;BME280;18335;51.486;7.562;2024-01-30T01:17:03;101334.28;;;16.99;85.42
31761;BME280;18335;51.486;7.562;2024-01-30T01:19:29;101328.06;;;17.05;86.17
31761;BME280;18335;51.486;7.562;2024-01-30T01:21:56;101337.31;;;16.82;85.69
31761;BME280;18335;51.486;7.562;2024-01-30T01:24:23;101330.88;;;17.28;82.29
31761;BME280;18335;51.486;7.562;2024-01-30T01:26:50;101328.47;;;17.25;82.65
31761;BME280;18335;51.486;7.562;2024-01-30T01:29:16;101328.63;;;17.24;82.56
31761;BME280;18335;51.486;7.562;2024-01-30T01:31:44;101328.31;;;16.96;84.12
31761;BME280;18335;51.486;7.562;2024-01-30T01:34:12;101333.66;;;17.74;78.30
31761;BME280;18335;51.486;7.562;2024-01-30T01:36:39;101328.47;;;17.25;81.29
31761;BME280;18335;51.486;7.562;2024-01-30T01:39:06;101334.06;;;17.62;79.18
31761;BME280;18335;51.486;7.562;2024-01-30T01:41:33;101326.06;;;17.22;82.80
31761;BME280;18335;51.486;7.562;2024-01-30T01:44:00;101327.25;;;16.97;81.76
31761;BME280;18335;51.486;7.562;2024-01-30T01:46:27;101327.91;;;17.07;82.19
31761;BME280;18335;51.486;7.562;2024-01-30T01:48:57;101325.09;;;16.84;86.09
31761;BME280;18335;51.486;7.562;2024-01-30T01:51:26;101332.34;;;16.77;87.17
31761;BME280;18335;51.486;7.562;2024-01-30T01:53:53;101320.13;;;17.10;84.94
31761;BME280;18335;51.486;7.562;2024-01-30T01:56:21;101327.19;;;16.27;90.72
31761;BME280;18335;51.486;7.562;2024-01-30T01:58:49;101324.50;;;16.58;89.25
31761;BME280;18335;51.486;7.562;2024-01-30T02:01:16;101328.03;;;16.83;86.74
31761;BME280;18335;51.486;7.562;2024-01-30T02:03:46;101324.66;;;16.65;87.29
31761;BME280;18335;51.486;7.562;2024-01-30T02:06:14;101316.00;;;17.60;79.40
31761;BME280;18335;51.486;7.562;2024-01-30T02:08:41;101325.78;;;17.40;80.76
31761;BME280;18335;51.486;7.562;2024-01-30T02:11:08;101324.84;;;16.94;83.67
31761;BME280;18335;51.486;7.562;2024-01-30T02:13:36;101314.41;;;17.12;81.61
31761;BME280;18335;51.486;7.562;2024-01-30T02:16:04;101310.25;;;16.85;87.52
31761;BME280;18335;51.486;7.562;2024-01-30T02:18:31;101312.91;;;16.71;86.64
31761;BME280;18335;51.486;7.562;2024-01-30T02:21:18;101310.56;;;16.59;89.32
31761;BME280;18335;51.486;7.562;2024-01-30T02:23:46;101301.63;;;16.88;87.70
31761;BME280;18335;51.486;7.562;2024-01-30T02:26:13;101297.59;;;17.52;81.95
31761;BME280;18335;51.486;7.562;2024-01-30T02:28:40;101295.06;;;17.20;84.81
31761;BME280;18335;51.486;7.562;2024-01-30T02:31:07;101296.19;;;17.03;84.08
31761;BME280;18335;51.486;7.562;2024-01-30T02:33:33;101294.50;;;17.25;82.12
31761;BME280;18335;51.486;7.562;2024-01-30T02:36:00;101290.66;;;17.11;81.50
31761;BME280;18335;51.486;7.562;2024-01-30T02:38:28;101288.75;;;17.34;79.87
31761;BME280;18335;51.486;7.562;2024-01-30T02:40:55;101299.78;;;16.26;89.56
31761;BME280;18335;51.486;7.562;2024-01-30T02:43:22;101296.59;;;17.23;85.23
31761;BME280;18335;51.486;7.562;2024-01-30T02:45:48;101291.16;;;16.84;86.78
31761;BME280;18335;51.486;7.562;2024-01-30T02:48:15;101290.59;;;17.19;82.13
31761;BME280;18335;51.486;7.562;2024-01-30T02:50:42;101292.03;;;16.84;85.39
31761;BME280;18335;51.486;7.562;2024-01-30T02:53:09;101286.44;;;17.23;82.50
31761;BME280;18335;51.486;7.562;2024-01-30T02:55:37;101280.00;;;17.00;85.10
31761;BME280;18335;51.486;7.562;2024-01-30T02:58:03;101286.16;;;16.87;85.83
31761;BME280;18335;51.486;7.562;2024-01-30T03:00:30;101278.63;;;16.73;86.92
31761;BME280;18335;51.486;7.562;2024-01-30T03:02:57;101276.31;;;16.85;85.94
31761;BME280;18335;51.486;7.562;2024-01-30T03:05:23;101270.81;;;16.54;88.60
31761;BME280;18335;51.486;7.562;2024-01-30T03:07:50;101269.41;;;16.89;86.60
31761;BME280;18335;51.486;7.562;2024-01-30T03:10:17;101268.38;;;16.59;86.75
31761;BME280;18335;51.486;7.562;2024-01-30T03:12:45;101266.28;;;16.53;88.22
31761;BME280;18335;51.486;7.562;2024-01-30T03:15:12;101260.22;;;16.27;93.27
31761;BME280;18335;51.486;7.562;2024-01-30T03:17:38;101272.16;;;15.95;95.20
31761;BME280;18335;51.486;7.562;2024-01-30T03:20:06;101267.50;;;16.12;95.82
31761;BME280;18335;51.486;7.562;2024-01-30T03:22:33;101252.22;;;16.48;92.11
31761;BME280;18335;51.486;7.562;2024-01-30T03:24:59;101252.13;;;16.72;90.73
31761;BME280;18335;51.486;7.562;2024-01-30T03:27:26;101252.06;;;16.41;93.54
31761;BME280;18335;51.486;7.562;2024-01-30T03:29:54;101255.34;;;15.82;98.40
31761;BME280;18335;51.486;7.562;2024-01-30T03:32:21;101249.25;;;16.11;95.70
31761;BME280;18335;51.486;7.562;2024-01-30T03:34:47;101247.59;;;15.85;98.04
31761;BME280;18335;51.486;7.562;2024-01-30T03:37:14;101237.06;;;16.44;92.21
31761;BME280;18335;51.486;7.562;2024-01-30T03:39:41;101238.00;;;16.28;94.49
31761;BME280;18335;51.486;7.562;2024-01-30T03:42:07;101229.72;;;16.36;94.59
31761;BME280;18335;51.486;7.562;2024-01-30T03:44:34;101231.47;;;16.91;89.42
31761;BME280;18335;51.486;7.562;2024-01-30T03:47:02;101235.44;;;16.66;91.01
31761;BME280;18335;51.486;7.562;2024-01-30T03:49:29;101231.34;;;16.53;92.45
31761;BME280;18335;51.486;7.562;2024-01-30T03:51:56;101230.44;;;16.22;95.92
31761;BME280;18335;51.486;7.562;2024-01-30T03:54:22;101231.88;;;16.49;91.79
31761;BME280;18335;51.486;7.562;2024-01-30T03:56:49;101235.59;;;16.25;95.06
31761;BME280;18335;51.486;7.562;2024-01-30T03:59:16;101228.75;;;16.21;95.45
31761;BME280;18335;51.486;7.562;2024-01-30T04:01:46;101225.31;;;16.89;88.71
31761;BME280;18335;51.486;7.562;2024-01-30T04:04:14;101227.53;;;16.63;91.60
31761;BME280;18335;51.486;7.562;2024-01-30T04:06:41;101227.72;;;16.14;95.85
31761;BME280;18335;51.486;7.562;2024-01-30T04:09:07;101225.16;;;16.13;96.09
31761;BME280;18335;51.486;7.562;2024-01-30T04:11:34;101227.06;;;16.12;95.90
31761;BME280;18335;51.486;7.562;2024-01-30T04:14:00;101224.16;;;16.44;93.62
31761;BME280;18335;51.486;7.562;2024-01-30T04:16:27;101223.00;;;16.70;93.47
31761;BME280;18335;51.486;7.562;2024-01-30T04:18:54;101225.16;;;16.51;91.63
31761;BME280;18335;51.486;7.562;2024-01-30T04:21:22;101216.16;;;16.66;89.62
31761;BME280;18335;51.486;7.562;2024-01-30T04:23:50;101216.31;;;16.95;88.98
31761;BME280;18335;51.486;7.562;2024-01-30T04:26:17;101216.28;;;16.72;89.40
31761;BME280;18335;51.486;7.562;2024-01-30T04:28:44;101210.00;;;16.55;89.35
31761;BME280;18335;51.486;7.562;2024-01-30T04:31:12;101218.81;;;16.43;90.58
31761;BME280;18335;51.486;7.562;2024-01-30T04:33:38;101212.63;;;16.41;90.65
31761;BME280;18335;51.486;7.562;2024-01-30T04:36:08;101223.13;;;16.76;90.18
31761;BME280;18335;51.486;7.562;2024-01-30T04:38:38;101218.53;;;16.69;92.74
31761;BME280;18335;51.486;7.562;2024-01-30T04:41:05;101211.34;;;16.21;95.44
31761;BME280;18335;51.486;7.562;2024-01-30T04:43:31;101218.19;;;16.72;91.93
31761;BME280;18335;51.486;7.562;2024-01-30T04:45:58;101211.31;;;16.68;90.33
31761;BME280;18335;51.486;7.562;2024-01-30T04:48:25;101205.94;;;16.35;91.46
31761;BME280;18335;51.486;7.562;2024-01-30T04:50:51;101209.56;;;16.75;89.65
31761;BME280;18335;51.486;7.562;2024-01-30T04:53:18;101208.06;;;16.64;90.05
31761;BME280;18335;51.486;7.562;2024-01-30T04:55:45;101197.59;;;16.59;90.28
31761;BME280;18335;51.486;7.562;2024-01-30T04:58:12;101202.69;;;16.71;88.42
31761;BME280;18335;51.486;7.562;2024-01-30T05:00:39;101208.84;;;16.42;91.79
31761;BME280;18335;51.486;7.562;2024-01-30T05:03:06;101196.94;;;16.57;91.19
31761;BME280;18335;51.486;7.562;2024-01-30T05:05:33;101194.00;;;16.43;91.85
31761;BME280;18335;51.486;7.562;2024-01-30T05:08:00;101205.03;;;16.43;93.71
31761;BME280;18335;51.486;7.562;2024-01-30T05:10:26;101197.84;;;16.34;93.73
31761;BME280;18335;51.486;7.562;2024-01-30T05:12:55;101192.94;;;16.52;93.91
31761;BME280;18335;51.486;7.562;2024-01-30T05:15:22;101203.72;;;15.84;97.83
31761;BME280;18335;51.486;7.562;2024-01-30T05:17:48;101201.97;;;16.38;94.20
31761;BME280;18335;51.486;7.562;2024-01-30T05:20:16;101198.53;;;15.97;96.20
31761;BME280;18335;51.486;7.562;2024-01-30T05:22:43;101193.56;;;16.31;94.95
31761;BME280;18335;51.486;7.562;2024-01-30T05:25:11;101195.88;;;16.50;93.36
31761;BME280;18335;51.486;7.562;2024-01-30T05:27:38;101192.25;;;16.58;93.32
31761;BME280;18335;51.486;7.562;2024-01-30T05:30:07;101199.78;;;16.33;93.63
31761;BME280;18335;51.486;7.562;2024-01-30T05:32:34;101196.31;;;16.31;93.84
31761;BME280;18335;51.486;7.562;2024-01-30T05:35:01;101186.81;;;16.03;94.80
31761;BME280;18335;51.486;7.562;2024-01-30T05:37:28;101185.41;;;16.54;91.54
31761;BME280;18335;51.486;7.562;2024-01-30T05:39:55;101186.53;;;16.29;94.98
31761;BME280;18335;51.486;7.562;2024-01-30T05:42:21;101189.63;;;16.65;92.68
31761;BME280;18335;51.486;7.562;2024-01-30T05:44:48;101190.66;;;16.33;94.32
31761;BME280;18335;51.486;7.562;2024-01-30T05:47:16;101194.66;;;16.53;93.32
31761;BME280;18335;51.486;7.562;2024-01-30T05:49:43;101188.59;;;16.27;95.29
31761;BME280;18335;51.486;7.562;2024-01-30T05:52:10;101187.47;;;16.44;93.48
31761;BME280;18335;51.486;7.562;2024-01-30T05:54:37;101189.72;;;16.40;94.76
31761;BME280;18335;51.486;7.562;2024-01-30T05:57:04;101192.03;;;16.29;99.32
31761;BME280;18335;51.486;7.562;2024-01-30T05:59:31;101186.13;;;16.40;100.00
31761;BME280;18335;51.486;7.562;2024-01-30T06:01:58;101188.00;;;17.01;92.28
31761;BME280;18335;51.486;7.562;2024-01-30T06:04:26;101185.16;;;16.64;91.81
31761;BME280;18335;51.486;7.562;2024-01-30T06:06:53;101185.81;;;15.96;98.22
31761;BME280;18335;51.486;7.562;2024-01-30T06:09:19;101189.88;;;16.47;92.45
31761;BME280;18335;51.486;7.562;2024-01-30T06:11:46;101185.16;;;16.64;93.48
31761;BME280;18335;51.486;7.562;2024-01-30T06:14:13;101191.16;;;16.28;93.53
31761;BME280;18335;51.486;7.562;2024-01-30T06:16:39;101192.09;;;16.51;93.20
31761;BME280;18335;51.486;7.562;2024-01-30T06:19:06;101194.88;;;16.43;93.31
31761;BME280;18335;51.486;7.562;2024-01-30T06:21:34;101196.16;;;16.64;91.19
31761;BME280;18335;51.486;7.562;2024-01-30T06:24:02;101193.78;;;16.52;92.76
31761;BME280;18335;51.486;7.562;2024-01-30T06:26:29;101190.56;;;16.80;89.49
31761;BME280;18335;51.486;7.562;2024-01-30T06:28:56;101184.38;;;16.47;93.80
31761;BME280;18335;51.486;7.562;2024-01-30T06:31:22;101186.50;;;16.68;88.63
31761;BME280;18335;51.486;7.562;2024-01-30T06:33:49;101182.78;;;16.61;93.84
31761;BME280;18335;51.486;7.562;2024-01-30T06:36:16;101194.47;;;16.24;93.44
31761;BME280;18335;51.486;7.562;2024-01-30T06:38:44;101191.78;;;16.54;91.87
31761;BME280;18335;51.486;7.562;2024-01-30T06:41:11;101202.75;;;16.63;90.66
31761;BME280;18335;51.486;7.562;2024-01-30T06:43:38;101195.88;;;16.58;93.20
31761;BME280;18335;51.486;7.562;2024-01-30T06:46:04;101203.19;;;16.35;95.56
31761;BME280;18335;51.486;7.562;2024-01-30T06:48:31;101195.06;;;16.42;94.24
31761;BME280;18335;51.486;7.562;2024-01-30T06:50:58;101199.00;;;16.47;93.38
31761;BME280;18335;51.486;7.562;2024-01-30T06:53:24;101191.25;;;16.43;95.32
31761;BME280;18335;51.486;7.562;2024-01-30T06:55:53;101197.84;;;16.34;95.52
31761;BME280;18335;51.486;7.562;2024-01-30T06:58:20;101201.31;;;16.28;95.15
31761;BME280;18335;51.486;7.562;2024-01-30T07:00:49;101193.97;;;16.20;96.18
31761;BME280;18335;51.486;7.562;2024-01-30T07:03:15;101186.78;;;16.11;96.16
31761;BME280;18335;51.486;7.562;2024-01-30T07:05:42;101186.66;;;16.35;96.34
31761;BME280;18335;51.486;7.562;2024-01-30T07:08:09;101187.97;;;16.55;93.60
31761;BME280;18335;51.486;7.562;2024-01-30T07:10:36;101187.81;;;16.80;89.78
31761;BME280;18335;51.486;7.562;2024-01-30T07:13:04;101186.72;;;16.89;89.11
31761;BME280;18335;51.486;7.562;2024-01-30T07:15:31;101186.25;;;16.54;94.14
31761;BME280;18335;51.486;7.562;2024-01-30T07:17:58;101187.00;;;16.94;91.45
31761;BME280;18335;51.486;7.562;2024-01-30T07:20:25;101177.44;;;16.82;90.21
31761;BME280;18335;51.486;7.562;2024-01-30T07:22:52;101188.09;;;17.30;86.77
31761;BME280;18335;51.486;7.562;2024-01-30T07:25:19;101189.34;;;16.82;91.23
31761;BME280;18335;51.486;7.562;2024-01-30T07:27:48;101185.22;;;17.24;89.14
31761;BME280;18335;51.486;7.562;2024-01-30T07:30:16;101188.84;;;16.79;91.40
31761;BME280;18335;51.486;7.562;2024-01-30T07:32:46;101180.03;;;16.52;93.05
31761;BME280;18335;51.486;7.562;2024-01-30T07:35:13;101186.06;;;17.24;90.40
31761;BME280;18335;51.486;7.562;2024-01-30T07:37:40;101196.50;;;16.69;94.17
31761;BME280;18335;51.486;7.562;2024-01-30T07:40:16;101195.41;;;17.00;89.65
31761;BME280;18335;51.486;7.562;2024-01-30T07:42:43;101194.91;;;16.97;91.01
31761;BME280;18335;51.486;7.562;2024-01-30T07:45:10;101192.53;;;16.94;91.67
31761;BME280;18335;51.486;7.562;2024-01-30T07:47:38;101205.41;;;17.01;90.54
31761;BME280;18335;51.486;7.562;2024-01-30T07:50:06;101200.56;;;17.03;91.35
31761;BME280;18335;51.486;7.562;2024-01-30T07:52:32;101201.91;;;17.07;91.46
31761;BME280;18335;51.486;7.562;2024-01-30T07:54:59;101207.59;;;16.83;92.61
31761;BME280;18335;51.486;7.562;2024-01-30T07:57:26;101215.66;;;17.30;88.44
31761;BME280;18335;51.486;7.562;2024-01-30T07:59:53;101221.34;;;16.61;94.36
31761;BME280;18335;51.486;7.562;2024-01-30T08:02:19;101220.94;;;17.40;89.67
31761;BME280;18335;51.486;7.562;2024-01-30T08:04:47;101222.75;;;17.10;89.85
31761;BME280;18335;51.486;7.562;2024-01-30T08:07:15;101211.34;;;17.13;89.51
31761;BME280;18335;51.486;7.562;2024-01-30T08:09:43;101210.97;;;17.16;90.93
31761;BME280;18335;51.486;7.562;2024-01-30T08:12:10;101209.88;;;17.25;89.73
31761;BME280;18335;51.486;7.562;2024-01-30T08:14:38;101218.81;;;17.27;87.36
31761;BME280;18335;51.486;7.562;2024-01-30T08:17:05;101215.22;;;17.41;88.24
31761;BME280;18335;51.486;7.562;2024-01-30T08:19:33;101210.31;;;16.52;95.57
31761;BME280;18335;51.486;7.562;2024-01-30T08:22:01;101211.88;;;17.08;92.87
31761;BME280;18335;51.486;7.562;2024-01-30T08:24:28;101218.25;;;17.54;89.75
31761;BME280;18335;51.486;7.562;2024-01-30T08:26:55;101221.53;;;17.73;86.38
31761;BME280;18335;51.486;7.562;2024-01-30T08:29:21;101230.16;;;17.32;90.63
31761;BME280;18335;51.486;7.562;2024-01-30T08:31:48;101222.47;;;16.97;93.15
31761;BME280;18335;51.486;7.562;2024-01-30T08:34:15;101231.47;;;17.36;88.26
31761;BME280;18335;51.486;7.562;2024-01-30T08:36:42;101226.44;;;17.62;87.42
31761;BME280;18335;51.486;7.562;2024-01-30T08:39:11;101228.16;;;17.63;88.59
31761;BME280;18335;51.486;7.562;2024-01-30T08:41:38;101224.28;;;17.73;87.40
31761;BME280;18335;51.486;7.562;2024-01-30T08:44:04;101216.22;;;17.86;84.40
31761;BME280;18335;51.486;7.562;2024-01-30T08:46:31;101216.59;;;18.12;81.52
31761;BME280;18335;51.486;7.562;2024-01-30T08:48:59;101225.59;;;17.62;86.73
31761;BME280;18335;51.486;7.562;2024-01-30T08:51:26;101229.16;;;18.29;79.81
31761;BME280;18335;51.486;7.562;2024-01-30T08:53:52;101229.28;;;18.06;83.14
31761;BME280;18335;51.486;7.562;2024-01-30T08:56:20;101225.50;;;17.55;87.91
31761;BME280;18335;51.486;7.562;2024-01-30T08:58:47;101228.28;;;17.85;85.58
31761;BME280;18335;51.486;7.562;2024-01-30T09:01:14;101223.44;;;17.87;84.76
31761;BME280;18335;51.486;7.562;2024-01-30T09:03:41;101218.00;;;17.79;83.94
31761;BME280;18335;51.486;7.562;2024-01-30T09:06:11;101229.28;;;18.06;85.35
31761;BME280;18335;51.486;7.562;2024-01-30T09:08:38;101220.28;;;18.48;80.95
31761;BME280;18335;51.486;7.562;2024-01-30T09:11:08;101221.31;;;18.47;80.43
31761;BME280;18335;51.486;7.562;2024-01-30T09:13:37;101225.84;;;18.34;81.38
31761;BME280;18335;51.486;7.562;2024-01-30T09:16:04;101230.25;;;18.78;77.76
31761;BME280;18335;51.486;7.562;2024-01-30T09:18:31;101238.41;;;18.21;84.63
31761;BME280;18335;51.486;7.562;2024-01-30T09:20:58;101239.81;;;18.61;78.74
31761;BME280;18335;51.486;7.562;2024-01-30T09:23:27;101239.88;;;19.04;77.67
31761;BME280;18335;51.486;7.562;2024-01-30T09:25:55;101255.66;;;18.89;77.15
31761;BME280;18335;51.486;7.562;2024-01-30T09:28:22;101246.38;;;19.11;75.20
31761;BME280;18335;51.486;7.562;2024-01-30T09:30:50;101250.44;;;19.36;75.34
31761;BME280;18335;51.486;7.562;2024-01-30T09:33:17;101259.16;;;19.54;71.45
31761;BME280;18335;51.486;7.562;2024-01-30T09:35:44;101262.22;;;19.23;74.22
31761;BME280;18335;51.486;7.562;2024-01-30T09:38:10;101255.53;;;18.97;76.69
31761;BME280;18335;51.486;7.562;2024-01-30T09:40:37;101260.47;;;19.58;73.17
31761;BME280;18335;51.486;7.562;2024-01-30T09:43:04;101266.13;;;19.08;76.77
31761;BME280;18335;51.486;7.562;2024-01-30T09:45:31;101266.81;;;19.52;75.35
31761;BME280;18335;51.486;7.562;2024-01-30T09:48:00;101274.69;;;19.76;71.21
31761;BME280;18335;51.486;7.562;2024-01-30T09:50:27;101275.47;;;19.28;74.85
31761;BME280;18335;51.486;7.562;2024-01-30T09:52:56;101274.84;;;19.96;69.42
31761;BME280;18335;51.486;7.562;2024-01-30T09:55:25;101272.00;;;19.89;69.28
31761;BME280;18335;51.486;7.562;2024-01-30T09:57:52;101267.75;;;20.15;69.56
31761;BME280;18335;51.486;7.562;2024-01-30T10:00:19;101265.28;;;19.99;70.00
31761;BME280;18335;51.486;7.562;2024-01-30T10:02:48;101266.44;;;19.83;70.58
31761;BME280;18335;51.486;7.562;2024-01-30T10:05:19;101269.72;;;19.44;73.73
31761;BME280;18335;51.486;7.562;2024-01-30T10:07:53;101267.03;;;19.36;73.07
31761;BME280;18335;51.486;7.562;2024-01-30T10:10:21;101270.06;;;19.56;73.38
31761;BME280;18335;51.486;7.562;2024-01-30T10:12:48;101266.63;;;19.81;71.52
31761;BME280;18335;51.486;7.562;2024-01-30T10:15:15;101265.44;;;20.18;70.74
31761;BME280;18335;51.486;7.562;2024-01-30T10:17:44;101254.97;;;20.48;67.24
31761;BME280;18335;51.486;7.562;2024-01-30T10:20:11;101253.72;;;20.23;69.48
31761;BME280;18335;51.486;7.562;2024-01-30T10:22:39;101257.31;;;19.61;71.80
31761;BME280;18335;51.486;7.562;2024-01-30T10:25:06;101253.66;;;20.44;69.60
31761;BME280;18335;51.486;7.562;2024-01-30T10:27:33;101252.22;;;19.93;72.19
31761;BME280;18335;51.486;7.562;2024-01-30T10:30:00;101257.88;;;19.50;72.56
31761;BME280;18335;51.486;7.562;2024-01-30T10:32:29;101248.91;;;20.79;67.36
31761;BME280;18335;51.486;7.562;2024-01-30T10:34:56;101257.00;;;20.74;68.16
31761;BME280;18335;51.486;7.562;2024-01-30T10:37:25;101250.44;;;20.40;68.15
31761;BME280;18335;51.486;7.562;2024-01-30T10:39:54;101251.25;;;20.28;68.83
31761;BME280;18335;51.486;7.562;2024-01-30T10:42:26;101255.09;;;20.33;67.57
31761;BME280;18335;51.486;7.562;2024-01-30T10:44:57;101257.03;;;20.33;68.80
31761;BME280;18335;51.486;7.562;2024-01-30T10:47:27;101246.56;;;20.07;68.75
31761;BME280;18335;51.486;7.562;2024-01-30T10:49:54;101240.75;;;19.96;70.74
31761;BME280;18335;51.486;7.562;2024-01-30T10:52:23;101250.25;;;20.42;68.10
31761;BME280;18335;51.486;7.562;2024-01-30T10:54:51;101251.00;;;20.02;68.89
31761;BME280;18335;51.486;7.562;2024-01-30T10:57:19;101245.53;;;19.80;69.79
31761;BME280;18335;51.486;7.562;2024-01-30T10:59:49;101251.56;;;20.18;69.71
31761;BME280;18335;51.486;7.562;2024-01-30T11:02:18;101256.72;;;19.94;70.68
31761;BME280;18335;51.486;7.562;2024-01-30T11:04:45;101251.34;;;19.85;70.82
31761;BME280;18335;51.486;7.562;2024-01-30T11:07:16;101264.94;;;19.59;71.95
31761;BME280;18335;51.486;7.562;2024-01-30T11:09:49;101255.50;;;20.30;69.03
31761;BME280;18335;51.486;7.562;2024-01-30T11:12:22;101259.19;;;20.10;68.68
31761;BME280;18335;51.486;7.562;2024-01-30T11:14:50;101259.03;;;20.52;67.16
31761;BME280;18335;51.486;7.562;2024-01-30T11:17:29;101258.06;;;20.32;67.49
31761;BME280;18335;51.486;7.562;2024-01-30T11:20:09;101249.78;;;20.38;67.56
31761;BME280;18335;51.486;7.562;2024-01-30T11:22:37;101251.78;;;20.51;68.59
31761;BME280;18335;51.486;7.562;2024-01-30T11:25:04;101251.09;;;20.90;65.98
31761;BME280;18335;51.486;7.562;2024-01-30T11:27:32;101253.03;;;20.42;67.09
31761;BME280;18335;51.486;7.562;2024-01-30T11:30:01;101252.59;;;20.92;64.22
31761;BME280;18335;51.486;7.562;2024-01-30T11:32:28;101253.66;;;20.44;66.37
31761;BME280;18335;51.486;7.562;2024-01-30T11:34:55;101241.44;;;20.32;67.48
31761;BME280;18335;51.486;7.562;2024-01-30T11:37:25;101244.25;;;20.38;67.42
31761;BME280;18335;51.486;7.562;2024-01-30T11:39:53;101255.78;;;20.42;67.62
31761;BME280;18335;51.486;7.562;2024-01-30T11:42:22;101266.81;;;20.76;65.54
31761;BME280;18335;51.486;7.562;2024-01-30T11:44:51;101252.13;;;20.35;68.55
31761;BME280;18335;51.486;7.562;2024-01-30T11:47:18;101249.28;;;21.17;64.29
31761;BME280;18335;51.486;7.562;2024-01-30T11:49:45;101258.63;;;20.55;66.90
31761;BME280;18335;51.486;7.562;2024-01-30T11:52:13;101256.78;;;20.28;69.28
31761;BME280;18335;51.486;7.562;2024-01-30T11:54:40;101251.03;;;20.77;67.37
31761;BME280;18335;51.486;7.562;2024-01-30T11:57:06;101257.78;;;20.61;68.40
31761;BME280;18335;51.486;7.562;2024-01-30T11:59:33;101255.72;;;21.57;65.09
31761;BME280;18335;51.486;7.562;2024-01-30T12:02:01;101267.19;;;20.60;67.53
31761;BME280;18335;51.486;7.562;2024-01-30T12:04:28;101265.22;;;21.02;66.96
31761;BME280;18335;51.486;7.562;2024-01-30T12:06:56;101265.56;;;20.85;66.56
31761;BME280;18335;51.486;7.562;2024-01-30T12:09:23;101275.25;;;19.93;75.87
31761;BME280;18335;51.486;7.562;2024-01-30T12:11:50;101262.16;;;20.83;72.94
31761;BME280;18335;51.486;7.562;2024-01-30T12:14:19;101268.44;;;20.51;71.91
31761;BME280;18335;51.486;7.562;2024-01-30T12:16:50;101278.41;;;20.18;78.25
31761;BME280;18335;51.486;7.562;2024-01-30T12:19:26;101274.06;;;20.30;78.54
31761;BME280;18335;51.486;7.562;2024-01-30T12:21:55;101261.16;;;20.50;77.80
31761;BME280;18335;51.486;7.562;2024-01-30T12:24:30;101270.78;;;19.92;82.74
31761;BME280;18335;51.486;7.562;2024-01-30T12:26:59;101282.91;;;19.91;86.76
31761;BME280;18335;51.486;7.562;2024-01-30T12:29:31;101286.03;;;20.37;81.98
31761;BME280;18335;51.486;7.562;2024-01-30T12:32:01;101287.09;;;19.59;88.28
31761;BME280;18335;51.486;7.562;2024-01-30T12:34:30;101279.75;;;19.94;85.95
31761;BME280;18335;51.486;7.562;2024-01-30T12:37:00;101276.44;;;20.80;78.62
31761;BME280;18335;51.486;7.562;2024-01-30T12:39:29;101282.78;;;20.27;77.59
31761;BME280;18335;51.486;7.562;2024-01-30T12:42:02;101277.25;;;21.22;73.26
31761;BME280;18335;51.486;7.562;2024-01-30T12:44:29;101282.41;;;21.44;72.81
31761;BME280;18335;51.486;7.562;2024-01-30T12:46:57;101283.72;;;21.55;71.83
31761;BME280;18335;51.486;7.562;2024-01-30T12:49:26;101287.72;;;21.33;73.52
31761;BME280;18335;51.486;7.562;2024-01-30T12:51:56;101290.97;;;21.43;76.91